Time;durP1;ratioP1;P1;durP2;ratioP2;P2;SDS_P1;SDS_P2;PMS_P1;PMS_P2;Temp;Humidity;BMP_temperature;BMP_pressure;BME280_temperature;BME280_humidity;BME280_pressure;Samples;Min_cycle;Max_cycle;Signal;HPM_P1;HPM_P2
2021/08/17 00:00:44;;;;;;;20.43;9.10;;;;;;;23.18;46.98;100214.49;126351;1099;104172;-79
2021/08/17 00:03:15;;;;;;;27.57;9.90;;;;;;;23.14;46.85;100213.69;126322;1098;104169;-78
2021/08/17 00:05:46;;;;;;;22.37;9.50;;;;;;;23.13;47.02;100211.91;126294;1097;104249;-79
2021/08/17 00:08:16;;;;;;;21.30;9.23;;;;;;;23.13;47.48;100211.04;126345;1099;104728;-80
2021/08/17 00:10:47;;;;;;;20.33;8.70;;;;;;;23.11;47.48;100210.20;126269;1099;104223;-80
2021/08/17 00:13:18;;;;;;;20.33;8.57;;;;;;;23.09;47.67;100215.58;126358;1099;104226;-79
2021/08/17 00:15:48;;;;;;;19.10;9.13;;;;;;;23.08;47.66;100212.91;126276;1099;104223;-80
2021/08/17 00:18:19;;;;;;;20.10;9.40;;;;;;;23.06;47.77;100207.58;126357;1099;104194;-80
2021/08/17 00:20:50;;;;;;;17.40;8.13;;;;;;;23.05;48.01;100211.16;126328;1099;104242;-78
2021/08/17 00:23:27;;;;;;;18.33;8.83;;;;;;;23.05;47.95;100212.97;126301;1099;104322;-79
2021/08/17 00:25:57;;;;;;;17.60;8.50;;;;;;;23.05;48.17;100210.30;126265;1096;104210;-79
2021/08/17 00:28:28;;;;;;;22.30;8.80;;;;;;;23.04;48.28;100212.06;126329;1099;104153;-79
2021/08/17 00:30:59;;;;;;;16.30;8.40;;;;;;;23.00;48.44;100207.70;126340;1098;104224;-80
2021/08/17 00:33:30;;;;;;;17.83;8.57;;;;;;;22.96;48.64;100208.67;126351;1099;104239;-79
2021/08/17 00:36:02;;;;;;;20.27;9.17;;;;;;;22.93;48.32;100206.05;126254;1099;104354;-79
2021/08/17 00:38:33;;;;;;;18.43;8.23;;;;;;;22.89;48.29;100201.66;126327;1099;104168;-80
2021/08/17 00:41:04;;;;;;;22.83;8.63;;;;;;;22.86;48.96;100194.61;126289;1099;104137;-80
2021/08/17 00:43:34;;;;;;;18.10;8.13;;;;;;;22.85;48.61;100191.96;126349;1099;104239;-79
2021/08/17 00:46:07;;;;;;;19.13;8.03;;;;;;;22.81;48.76;100193.80;126303;1099;104168;-79
2021/08/17 00:48:39;;;;;;;19.82;7.60;;;;;;;22.80;49.06;100187.57;126322;1099;108721;-80
2021/08/17 00:51:10;;;;;;;20.83;7.80;;;;;;;22.81;48.85;100185.77;126381;1099;101800;-81
2021/08/17 00:53:43;;;;;;;17.77;7.87;;;;;;;22.82;48.80;100189.34;126322;1099;104262;-80
2021/08/17 00:56:14;;;;;;;17.23;7.63;;;;;;;22.79;48.98;100187.59;126335;1099;104219;-79
2021/08/17 00:58:45;;;;;;;16.83;7.87;;;;;;;22.76;49.07;100185.86;126340;1099;104268;-79
2021/08/17 01:01:15;;;;;;;19.27;8.33;;;;;;;22.76;49.49;100176.96;126313;1099;104309;-79
2021/08/17 01:03:47;;;;;;;19.13;7.93;;;;;;;22.74;49.15;100193.04;126330;1099;104271;-80
2021/08/17 01:06:18;;;;;;;17.83;8.37;;;;;;;22.72;49.48;100185.95;126276;1099;104300;-79
2021/08/17 01:08:49;;;;;;;17.17;8.13;;;;;;;22.71;49.22;100181.53;126266;1099;104187;-79
2021/08/17 01:11:19;;;;;;;19.33;8.17;;;;;;;22.68;49.33;100187.80;126298;1096;104133;-79
2021/08/17 01:13:51;;;;;;;18.70;8.40;;;;;;;22.68;49.84;100184.27;126301;1096;104283;-80
2021/08/17 01:16:23;;;;;;;18.87;7.87;;;;;;;22.66;49.65;100183.39;126344;1096;104191;-79
2021/08/17 01:18:53;;;;;;;18.00;8.07;;;;;;;22.61;49.60;100184.38;126283;1097;104238;-79
2021/08/17 01:21:26;;;;;;;21.67;8.40;;;;;;;22.59;49.65;100178.19;126338;1099;104140;-80
2021/08/17 01:23:57;;;;;;;19.20;8.33;;;;;;;22.57;49.88;100177.31;126346;1099;104175;-79
2021/08/17 01:26:28;;;;;;;19.23;8.07;;;;;;;22.56;50.10;100177.34;126299;1099;104322;-79
2021/08/17 01:28:59;;;;;;;22.30;8.47;;;;;;;22.53;49.98;100178.30;126306;1099;104284;-80
2021/08/17 01:31:30;;;;;;;20.17;8.13;;;;;;;22.53;50.02;100177.40;126342;1096;104145;-80
2021/08/17 01:34:00;;;;;;;20.80;8.30;;;;;;;22.52;50.23;100167.64;126351;1096;104239;-79
2021/08/17 01:36:31;;;;;;;17.50;8.10;;;;;;;22.51;50.23;100171.20;126369;1097;104239;-79
2021/08/17 01:39:02;;;;;;;19.10;7.47;;;;;;;22.48;50.32;100169.46;126284;1096;104072;-80
2021/08/17 01:41:32;;;;;;;19.03;8.43;;;;;;;22.45;50.43;100172.19;126336;1099;104150;-80
2021/08/17 01:44:08;;;;;;;17.47;7.50;;;;;;;22.42;50.14;100164.23;126290;1099;104615;-79
2021/08/17 01:46:39;;;;;;;16.17;7.67;;;;;;;22.41;50.42;100162.48;126304;1099;104143;-80
2021/08/17 01:49:11;;;;;;;17.00;7.67;;;;;;;22.41;50.24;100154.47;126285;1096;104160;-80
2021/08/17 01:51:44;;;;;;;17.10;7.97;;;;;;;22.39;50.32;100158.94;126330;1096;104672;-79
2021/08/17 01:54:16;;;;;;;16.20;7.67;;;;;;;22.37;50.96;100150.08;126319;1096;104155;-80
2021/08/17 01:56:47;;;;;;;19.33;7.77;;;;;;;22.37;51.38;100147.41;126305;1096;104316;-79
2021/08/17 01:59:21;;;;;;;15.93;7.87;;;;;;;22.36;50.80;100149.20;126237;1099;104207;-78
2021/08/17 02:01:50;;;;;;;;;;;;;;;22.32;50.83;100155.50;126396;1099;104185;-80
2021/08/17 02:04:21;;;;;;;19.50;7.57;;;;;;;22.31;51.03;100150.19;126315;1099;104286;-80
2021/08/17 02:06:52;;;;;;;16.70;7.23;;;;;;;22.29;50.81;100146.64;126257;1099;104277;-80
2021/08/17 02:09:24;;;;;;;18.63;7.93;;;;;;;22.29;51.35;100149.31;126261;1099;105971;-79
2021/08/17 02:11:57;;;;;;;18.13;8.00;;;;;;;22.23;51.30;100142.27;126346;1098;104140;-78
2021/08/17 02:14:28;;;;;;;19.80;8.00;;;;;;;22.20;51.19;100150.34;126326;1095;104162;-79
2021/08/17 02:16:59;;;;;;;21.67;7.97;;;;;;;22.16;51.52;100141.52;126166;1099;104193;-79
2021/08/17 02:19:30;;;;;;;23.90;7.90;;;;;;;22.16;52.05;100144.19;126148;1099;104259;-79
2021/08/17 02:22:01;;;;;;;27.63;8.87;;;;;;;22.15;51.43;100139.73;126216;1099;104216;-80
2021/08/17 02:24:31;;;;;;;18.73;8.03;;;;;;;22.15;52.21;100145.08;126272;1099;104139;-80
2021/08/17 02:27:02;;;;;;;24.70;8.47;;;;;;;22.16;52.18;100141.52;126216;1099;104149;-80
2021/08/17 02:29:32;;;;;;;19.63;8.00;;;;;;;22.14;52.29;100142.44;126081;1099;104172;-79
2021/08/17 02:32:03;;;;;;;21.13;8.27;;;;;;;22.10;51.91;100141.63;126162;1099;104200;-79
2021/08/17 02:34:34;;;;;;;17.90;7.60;;;;;;;22.08;51.55;100143.45;126211;1099;104307;-79
2021/08/17 02:37:05;;;;;;;17.63;7.60;;;;;;;22.04;51.99;100144.39;126238;1099;104155;-80
2021/08/17 02:39:35;;;;;;;17.07;7.40;;;;;;;22.01;52.37;100145.31;126219;1099;104313;-79
2021/08/17 02:42:07;;;;;;;19.43;7.67;;;;;;;21.99;51.94;100138.27;126208;1099;104220;-79
2021/08/17 02:44:37;;;;;;;16.87;7.80;;;;;;;21.98;51.75;100139.16;126182;1099;104398;-79
2021/08/17 02:47:08;;;;;;;18.57;7.40;;;;;;;21.98;52.58;100139.16;126204;1099;104296;-80
2021/08/17 02:49:39;;;;;;;16.13;7.50;;;;;;;21.98;52.23;100142.70;126256;1098;104252;-80
2021/08/17 02:52:10;;;;;;;16.37;7.50;;;;;;;21.99;52.37;100138.27;126331;1096;104137;-80
2021/08/17 02:54:41;;;;;;;14.60;7.27;;;;;;;21.99;52.90;100135.59;126326;1096;104207;-79
2021/08/17 02:57:11;;;;;;;15.17;7.07;;;;;;;21.97;52.96;100142.72;126357;1099;104271;-79
2021/08/17 02:59:42;;;;;;;16.27;7.97;;;;;;;21.96;52.89;100135.64;126208;1099;104216;-79
2021/08/17 03:02:12;;;;;;;16.93;7.33;;;;;;;21.94;52.90;100141.01;126292;1099;104297;-79
2021/08/17 03:04:43;;;;;;;18.10;7.83;;;;;;;21.93;52.43;100138.36;126294;1099;104220;-79
2021/08/17 03:07:14;;;;;;;18.27;8.20;;;;;;;21.92;52.74;100137.45;126283;1099;104294;-80
2021/08/17 03:09:45;;;;;;;18.83;7.40;;;;;;;21.90;52.19;100141.95;126280;1099;104149;-80
2021/08/17 03:12:17;;;;;;;18.87;7.57;;;;;;;21.88;52.98;100141.98;126281;1099;104198;-79
2021/08/17 03:14:50;;;;;;;18.07;7.22;;;;;;;21.87;52.70;100133.99;126331;1097;104149;-79
2021/08/17 03:17:22;;;;;;;15.60;7.27;;;;;;;21.84;51.93;100140.25;126362;1099;104366;-80
2021/08/17 03:19:54;;;;;;;20.63;7.47;;;;;;;21.82;52.95;100136.73;126321;1096;104142;-80
2021/08/17 03:22:28;;;;;;;14.40;7.13;;;;;;;21.78;52.56;100135.02;126384;1099;104149;-78
2021/08/17 03:25:00;;;;;;;19.67;7.70;;;;;;;21.79;52.88;100138.59;126269;1099;104270;-81
2021/08/17 03:27:32;;;;;;;15.93;7.53;;;;;;;21.79;53.30;100144.80;126267;1099;104242;-80
2021/08/17 03:30:04;;;;;;;14.37;7.67;;;;;;;21.80;53.47;100145.67;126327;1096;105492;-79
2021/08/17 03:32:34;;;;;;;21.13;8.10;;;;;;;21.81;53.24;100140.30;126316;1096;104293;-79
2021/08/17 03:35:06;;;;;;;18.17;7.80;;;;;;;21.84;53.39;100139.38;126296;1099;104288;-79
2021/08/17 03:37:37;;;;;;;15.67;7.97;;;;;;;21.86;53.07;100137.56;126368;1096;103598;-79
2021/08/17 03:40:12;;;;;;;15.97;7.50;;;;;;;21.88;53.33;100143.78;126252;1099;104217;-79
2021/08/17 03:42:44;;;;;;;19.47;7.27;;;;;;;21.86;53.24;100143.80;126333;1099;102074;-78
2021/08/17 03:45:17;;;;;;;14.87;7.00;;;;;;;21.88;52.60;100139.31;126325;1099;104150;-79
2021/08/17 03:47:49;;;;;;;16.00;7.30;;;;;;;21.89;53.15;100143.76;126311;1099;104372;-79
2021/08/17 03:50:21;;;;;;;16.43;7.20;;;;;;;21.94;52.96;100149.02;126291;1096;104267;-80
2021/08/17 03:52:53;;;;;;;17.07;7.45;;;;;;;21.96;53.66;100146.33;126363;1096;104192;-80
2021/08/17 03:55:23;;;;;;;17.07;7.97;;;;;;;22.00;53.87;100145.34;126340;1099;104193;-80
2021/08/17 03:57:54;;;;;;;17.73;6.83;;;;;;;22.03;53.09;100155.98;126197;1096;104162;-78
2021/08/17 04:00:27;;;;;;;13.23;6.57;;;;;;;22.05;53.24;100154.19;126203;1099;104150;-78
2021/08/17 04:02:59;;;;;;;16.73;6.83;;;;;;;22.08;53.43;100155.00;126312;1099;104274;-79
2021/08/17 04:05:30;;;;;;;16.10;7.47;;;;;;;22.12;52.47;100154.95;126338;1099;104287;-79
2021/08/17 04:08:02;;;;;;;13.93;6.93;;;;;;;22.16;52.34;100160.22;126330;1099;104267;-78
2021/08/17 04:10:33;;;;;;;17.37;6.87;;;;;;;22.18;52.54;100161.06;126285;1098;104140;-79
2021/08/17 04:13:04;;;;;;;15.60;6.77;;;;;;;22.21;52.94;100154.79;126339;1096;101956;-77
2021/08/17 04:15:34;;;;;;;17.10;6.70;;;;;;;22.23;52.73;100153.84;126304;1099;104265;-78
2021/08/17 04:18:05;;;;;;;14.67;7.23;;;;;;;22.25;52.99;100157.38;126364;1096;104233;-78
2021/08/17 04:20:36;;;;;;;18.73;7.20;;;;;;;22.28;52.20;100160.90;126118;1099;104245;-79
2021/08/17 04:23:07;;;;;;;13.80;6.73;;;;;;;22.30;52.53;100160.01;126163;1099;104150;-80
2021/08/17 04:25:38;;;;;;;17.27;7.13;;;;;;;22.33;52.89;100165.30;126189;1099;104127;-79
2021/08/17 04:28:10;;;;;;;20.03;7.43;;;;;;;22.36;52.21;100167.02;126187;1099;104165;-79
2021/08/17 04:30:41;;;;;;;17.80;6.70;;;;;;;22.39;52.68;100162.52;126155;1099;104185;-79
2021/08/17 04:33:12;;;;;;;16.70;6.77;;;;;;;22.42;52.25;100161.55;126228;1099;104295;-78
2021/08/17 04:35:43;;;;;;;16.37;7.10;;;;;;;22.46;52.34;100171.30;125394;1099;104373;-78
2021/08/17 04:38:13;;;;;;;13.63;6.37;;;;;;;22.51;52.40;100164.06;126222;1099;104601;-78
2021/08/17 04:40:44;;;;;;;16.20;7.00;;;;;;;22.55;51.87;100164.91;126190;1099;104150;-78
2021/08/17 04:43:19;;;;;;;16.63;6.63;;;;;;;22.58;51.77;100168.39;125298;1102;104194;-78
2021/08/17 04:45:53;;;;;;;14.47;6.50;;;;;;;22.63;52.26;100168.30;126184;1099;104377;-77
2021/08/17 04:48:25;;;;;;;14.73;6.63;;;;;;;22.67;51.91;100164.64;126164;1099;104377;-78
2021/08/17 04:50:59;;;;;;;16.80;6.60;;;;;;;22.72;51.94;100169.90;125459;1099;104253;-78
2021/08/17 04:53:34;;;;;;;15.07;6.60;;;;;;;22.75;51.60;100169.84;126118;1099;110950;-77
2021/08/17 04:56:06;;;;;;;17.60;6.77;;;;;;;22.78;51.19;100165.33;126281;1096;104133;-77
2021/08/17 04:58:37;;;;;;;16.50;6.30;;;;;;;22.82;51.42;100168.81;126242;1099;104207;-78
2021/08/17 05:01:08;;;;;;;11.70;6.17;;;;;;;22.87;51.23;100164.25;126266;1096;104181;-77
2021/08/17 05:03:40;;;;;;;14.43;6.67;;;;;;;22.91;51.24;100171.31;126296;1099;104171;-76
2021/08/17 05:06:11;;;;;;;19.57;6.70;;;;;;;22.96;51.11;100172.09;126220;1097;105578;-77
2021/08/17 05:08:42;;;;;;;14.50;6.30;;;;;;;23.01;51.29;100171.12;126252;1096;104162;-78
2021/08/17 05:11:20;;;;;;;16.10;6.17;;;;;;;23.06;51.15;100162.09;126236;1098;104146;-77
2021/08/17 05:13:51;;;;;;;15.20;6.47;;;;;;;23.09;51.16;100159.39;126215;1099;104172;-78
2021/08/17 05:16:21;;;;;;;15.73;6.60;;;;;;;23.13;50.85;100163.74;126308;1096;104165;-79
2021/08/17 05:18:52;;;;;;;16.97;6.90;;;;;;;23.17;51.35;100167.25;126285;1099;104223;-77
2021/08/17 05:21:24;;;;;;;17.23;7.00;;;;;;;23.22;51.26;100170.70;126317;1099;104188;-77
2021/08/17 05:23:58;;;;;;;17.50;6.67;;;;;;;23.26;51.25;100175.05;126216;1099;104240;-76
2021/08/17 05:26:31;;;;;;;15.07;7.03;;;;;;;23.29;51.31;100183.02;126286;1099;104226;-77
2021/08/17 05:29:02;;;;;;;16.33;6.57;;;;;;;23.33;50.99;100182.05;126315;1099;104198;-77
2021/08/17 05:31:35;;;;;;;19.17;8.10;;;;;;;23.38;51.03;100181.08;126246;1099;104214;-78
2021/08/17 05:34:08;;;;;;;19.33;6.60;;;;;;;23.42;50.81;100169.36;126179;1099;104252;-77
2021/08/17 05:36:40;;;;;;;14.07;6.28;;;;;;;23.46;50.91;100177.29;126212;1099;104220;-77
2021/08/17 05:39:15;;;;;;;14.63;6.20;;;;;;;23.51;51.20;100179.86;126031;1099;104168;-77
2021/08/17 05:41:47;;;;;;;20.48;6.22;;;;;;;23.58;50.78;100177.95;126076;1099;104146;-78
2021/08/17 05:44:20;;;;;;;15.93;6.73;;;;;;;23.63;50.75;100182.27;125270;1099;104283;-76
2021/08/17 05:46:51;;;;;;;15.25;6.05;;;;;;;23.68;50.78;100177.70;125248;1099;104210;-76
2021/08/17 05:49:23;;;;;;;16.23;6.50;;;;;;;23.74;50.91;100178.47;125360;1099;104207;-75
2021/08/17 05:51:57;;;;;;;12.83;5.70;;;;;;;23.79;50.70;100179.23;125390;1099;104249;-77
2021/08/17 05:54:35;;;;;;;14.40;5.70;;;;;;;23.84;50.38;100172.88;125999;1099;105482;-76
2021/08/17 05:57:07;;;;;;;16.20;6.73;;;;;;;23.93;50.46;100166.40;126115;1099;104361;-77
2021/08/17 05:59:40;;;;;;;16.63;6.13;;;;;;;23.99;50.40;100168.92;126196;1099;104149;-76
2021/08/17 06:02:32;;;;;;;18.10;6.77;;;;;;;24.05;50.15;100165.22;126084;1099;104635;-77
2021/08/17 06:05:05;;;;;;;17.55;6.40;;;;;;;24.09;50.53;100172.28;126025;1099;107325;-75
2021/08/17 06:07:36;;;;;;;16.23;6.70;;;;;;;24.14;50.51;100164.12;125876;1099;104204;-75
2021/08/17 06:10:10;;;;;;;16.37;6.60;;;;;;;24.18;50.48;100160.42;125215;1099;104214;-76
2021/08/17 06:12:41;;;;;;;17.07;6.40;;;;;;;24.24;50.70;100160.27;126063;1099;104140;-76
2021/08/17 06:15:15;;;;;;;16.17;5.57;;;;;;;24.30;50.06;100165.47;126093;1099;104271;-76
2021/08/17 06:17:47;;;;;;;18.77;6.33;;;;;;;24.35;49.79;100163.53;126097;1096;104234;-76
2021/08/17 06:20:20;;;;;;;16.80;6.05;;;;;;;24.41;49.59;100167.86;126219;1096;104207;-75
2021/08/17 06:22:50;;;;;;;12.90;5.30;;;;;;;24.48;49.77;100160.52;126162;1099;104134;-77
2021/08/17 06:25:22;;;;;;;12.20;5.13;;;;;;;24.55;48.66;100159.45;126107;1096;104159;-76
2021/08/17 06:27:54;;;;;;;13.60;5.30;;;;;;;24.62;48.26;100166.45;126026;1099;104262;-77
2021/08/17 06:30:26;;;;;;;12.47;4.87;;;;;;;24.69;48.29;100156.42;126038;1099;104344;-78
2021/08/17 06:32:58;;;;;;;;;;;;;;;24.78;47.02;100164.20;126304;1099;104124;-77
2021/08/17 06:35:34;;;;;;;12.43;5.10;;;;;;;24.87;47.32;100165.73;126187;1096;104171;-78
2021/08/17 06:38:07;;;;;;;11.10;4.97;;;;;;;24.96;47.54;100165.47;126153;1096;104152;-78
2021/08/17 06:40:40;;;;;;;15.78;5.05;;;;;;;25.03;47.05;100161.69;126208;1096;104143;-77
2021/08/17 06:43:28;;;;;;;11.20;4.47;;;;;;;25.09;46.91;100161.51;126083;1099;104175;-77
2021/08/17 06:46:01;;;;;;;11.30;4.67;;;;;;;25.21;46.18;100164.74;126262;1099;104245;-77
2021/08/17 06:48:37;;;;;;;12.07;4.90;;;;;;;25.33;46.10;100163.53;126025;1099;104197;-77
2021/08/17 06:51:11;;;;;;;17.10;5.08;;;;;;;25.43;45.59;100165.89;126217;1099;104143;-76
2021/08/17 06:53:42;;;;;;;11.60;4.63;;;;;;;25.50;45.85;100153.14;126183;1099;104169;-77
2021/08/17 06:56:15;;;;;;;9.10;4.97;;;;;;;25.64;45.46;100163.45;126104;1099;108381;-76
2021/08/17 06:58:48;;;;;;;10.03;4.67;;;;;;;25.75;44.61;100161.28;126227;1099;104149;-77
2021/08/17 07:01:20;;;;;;;15.57;5.10;;;;;;;25.88;45.13;100160.89;126114;1096;104171;-77
2021/08/17 07:03:55;;;;;;;10.50;5.23;;;;;;;26.00;44.35;100161.38;126359;1096;104139;-79
2021/08/17 07:06:28;;;;;;;12.73;4.70;;;;;;;26.15;44.59;100159.13;126361;1097;104169;-77
2021/08/17 07:09:02;;;;;;;10.07;4.53;;;;;;;26.29;44.37;100161.34;126208;1099;104297;-76
2021/08/17 07:11:39;;;;;;;12.13;5.07;;;;;;;26.44;43.85;100158.09;126158;1099;104233;-78
2021/08/17 07:14:14;;;;;;;11.97;5.20;;;;;;;26.60;43.31;100157.54;126078;1098;104252;-77
2021/08/17 07:16:53;;;;;;;12.20;4.60;;;;;;;26.76;43.48;100155.23;126277;1096;104239;-76
2021/08/17 07:19:27;;;;;;;10.67;4.40;;;;;;;26.89;43.12;100156.51;126286;1096;104216;-78
2021/08/17 07:21:58;;;;;;;12.20;4.33;;;;;;;27.03;42.81;100158.68;126107;1098;104268;-78
2021/08/17 07:24:31;;;;;;;9.58;4.92;;;;;;;27.16;42.74;100157.29;126237;1099;104149;-77
2021/08/17 07:27:03;;;;;;;9.70;4.73;;;;;;;27.32;42.30;100154.03;126135;1099;111424;-78
2021/08/17 07:29:36;;;;;;;10.80;5.08;;;;;;;27.44;42.14;100156.22;126224;1099;104284;-77
2021/08/17 07:32:11;;;;;;;13.60;5.10;;;;;;;27.58;41.83;100155.66;126201;1099;104185;-77
2021/08/17 07:34:44;;;;;;;12.07;5.33;;;;;;;27.70;41.70;100159.69;126291;1098;104239;-77
2021/08/17 07:37:18;;;;;;;15.35;5.10;;;;;;;27.86;41.48;100162.63;126218;1096;104166;-78
2021/08/17 07:39:49;;;;;;;9.90;4.78;;;;;;;28.02;41.48;100160.19;126222;1096;104149;-77
2021/08/17 07:42:21;;;;;;;12.50;4.90;;;;;;;28.14;40.67;100156.98;126279;1097;104238;-76
2021/08/17 07:45:09;;;;;;;9.30;4.60;;;;;;;28.26;40.03;100159.16;126151;1099;104185;-78
2021/08/17 07:47:41;;;;;;;9.63;4.90;;;;;;;28.38;40.21;100162.28;126241;1098;107096;-78
2021/08/17 07:50:16;;;;;;;14.15;5.25;;;;;;;28.47;40.02;100156.45;126317;1099;104217;-78
2021/08/17 07:52:47;;;;;;;12.73;5.37;;;;;;;28.58;39.74;100159.61;126301;1099;104242;-77
2021/08/17 07:55:20;;;;;;;13.07;5.57;;;;;;;28.71;39.39;100159.06;126334;1099;104204;-77
2021/08/17 07:57:53;;;;;;;12.95;4.92;;;;;;;28.84;39.42;100155.73;126298;1096;104153;-79
2021/08/17 08:00:29;;;;;;;10.23;4.80;;;;;;;28.98;39.27;100155.08;126102;1096;104633;-78
2021/08/17 08:03:03;;;;;;;10.40;5.07;;;;;;;29.13;38.88;100144.53;126141;1096;104175;-78
2021/08/17 08:05:35;;;;;;;11.30;5.33;;;;;;;29.28;38.45;100129.42;126070;1099;105557;-78
2021/08/17 08:08:07;;;;;;;16.57;6.10;;;;;;;29.36;38.63;100147.03;126279;1099;104149;-77
2021/08/17 08:10:39;;;;;;;18.47;5.73;;;;;;;29.43;38.13;100142.20;126218;1099;104177;-78
2021/08/17 08:13:14;;;;;;;10.90;5.60;;;;;;;29.60;38.18;100135.11;126194;1097;104188;-78
2021/08/17 08:15:46;;;;;;;12.87;5.87;;;;;;;29.73;38.28;100130.83;126212;1098;104133;-79
2021/08/17 08:18:19;;;;;;;14.07;6.10;;;;;;;29.85;38.06;100132.09;126323;1097;104143;-79
2021/08/17 08:20:51;;;;;;;13.43;6.60;;;;;;;29.97;37.88;100136.88;126290;1096;104165;-78
2021/08/17 08:23:24;;;;;;;12.50;6.30;;;;;;;30.09;38.20;100133.55;126214;1099;104149;-79
2021/08/17 08:25:56;;;;;;;14.77;6.40;;;;;;;30.16;37.11;100131.39;126187;1096;104176;-79
2021/08/17 08:28:29;;;;;;;13.87;6.17;;;;;;;30.18;36.70;100128.60;126238;1099;104152;-79
2021/08/17 08:31:03;;;;;;;12.63;6.27;;;;;;;30.24;36.88;100131.86;126253;1099;104227;-77
2021/08/17 08:33:35;;;;;;;16.70;6.53;;;;;;;30.31;36.93;100135.14;126178;1099;105618;-79
2021/08/17 08:36:09;;;;;;;15.83;5.67;;;;;;;30.43;36.68;100129.12;126205;1099;104240;-78
2021/08/17 08:38:41;;;;;;;20.17;6.57;;;;;;;30.51;36.31;100127.81;126120;1099;104293;-79
2021/08/17 08:41:17;;;;;;;16.32;6.17;;;;;;;30.57;36.41;100135.61;126360;1096;104139;-78
2021/08/17 08:43:51;;;;;;;16.67;5.97;;;;;;;30.61;35.66;100137.20;126156;1099;104198;-78
2021/08/17 08:46:22;;;;;;;11.83;5.40;;;;;;;30.69;34.77;100136.80;126250;1096;104325;-78
2021/08/17 08:48:56;;;;;;;;;;;;;;;30.65;34.38;100125.23;126190;1098;117726;-78
2021/08/17 08:51:27;;;;;;;11.20;5.20;;;;;;;30.70;34.71;100125.88;126246;1099;104169;-78
2021/08/17 08:54:01;;;;;;;11.47;5.30;;;;;;;30.76;34.23;100122.84;126241;1099;104163;-77
2021/08/17 08:56:33;;;;;;;13.60;4.87;;;;;;;30.90;34.31;100121.19;126227;1099;104229;-79
2021/08/17 08:59:07;;;;;;;10.60;5.07;;;;;;;30.93;33.62;100124.63;126202;1099;104165;-77
2021/08/17 09:01:40;;;;;;;10.53;5.30;;;;;;;31.01;33.24;100121.53;126161;1099;104175;-76
2021/08/17 09:04:16;;;;;;;11.63;5.13;;;;;;;31.06;33.46;100127.56;126133;1099;104334;-77
2021/08/17 09:06:57;;;;;;;13.13;5.43;;;;;;;31.08;33.36;100124.77;126284;1096;104165;-77
2021/08/17 09:09:30;;;;;;;13.00;5.67;;;;;;;31.13;32.96;100118.11;126306;1099;110804;-77
2021/08/17 09:12:03;;;;;;;13.20;6.17;;;;;;;31.17;33.18;100114.27;126196;1099;104168;-79
2021/08/17 09:14:37;;;;;;;12.93;5.83;;;;;;;31.19;32.86;100111.48;126261;1099;104149;-78
2021/08/17 09:17:12;;;;;;;11.97;5.27;;;;;;;31.22;32.86;100107.73;126246;1099;104185;-76
2021/08/17 09:19:46;;;;;;;16.77;6.03;;;;;;;31.32;32.65;100108.94;126277;1096;104178;-80
2021/08/17 09:22:24;;;;;;;12.90;6.30;;;;;;;31.35;32.39;100106.05;126247;1096;104143;-77
2021/08/17 09:24:58;;;;;;;15.97;6.30;;;;;;;31.36;32.46;100102.39;126279;1095;104133;-78
2021/08/17 09:27:32;;;;;;;15.63;6.73;;;;;;;31.41;32.53;100102.98;126096;1099;104314;-80
2021/08/17 09:30:08;;;;;;;14.43;6.53;;;;;;;31.44;31.96;100108.23;125933;1099;108155;-78
2021/08/17 09:32:53;;;;;;;15.27;6.43;;;;;;;31.50;31.67;100110.59;126162;1099;104207;-77
2021/08/17 09:35:28;;;;;;;16.33;7.13;;;;;;;31.57;31.69;100107.56;126235;1099;104149;-77
2021/08/17 09:38:11;;;;;;;16.13;6.73;;;;;;;31.61;31.25;100106.44;126212;1099;104188;-77
2021/08/17 09:40:42;;;;;;;11.23;5.63;;;;;;;31.64;31.53;100100.83;126217;1099;104220;-77
2021/08/17 09:43:20;;;;;;;16.63;6.70;;;;;;;31.66;30.94;100107.03;126309;1097;104158;-77
2021/08/17 09:45:53;;;;;;;13.70;5.90;;;;;;;31.68;31.01;100102.38;126352;1096;104255;-78
2021/08/17 09:48:32;;;;;;;10.40;5.50;;;;;;;31.70;31.16;100103.19;126232;1096;104197;-77
2021/08/17 09:51:08;;;;;;;14.60;5.67;;;;;;;31.78;30.86;100105.45;126285;1099;104220;-77
2021/08/17 09:53:41;;;;;;;14.07;5.70;;;;;;;31.83;30.52;100106.03;126199;1099;104143;-81
2021/08/17 09:56:28;;;;;;;12.17;5.27;;;;;;;31.81;30.15;100107.98;126275;1099;104198;-79
2021/08/17 09:59:04;;;;;;;11.27;5.13;;;;;;;31.79;29.42;100105.36;126264;1099;104225;-79
2021/08/17 10:01:42;;;;;;;15.30;5.50;;;;;;;31.78;29.90;100109.02;126253;1099;104236;-78
2021/08/17 10:04:22;;;;;;;11.37;5.23;;;;;;;31.84;29.74;100111.37;126110;1097;104139;-78
2021/08/17 10:06:56;;;;;;;10.63;4.63;;;;;;;31.82;29.74;100098.85;126012;1099;104146;-79
2021/08/17 10:09:29;;;;;;;9.17;4.80;;;;;;;31.86;30.08;100106.72;126061;1099;104396;-78
2021/08/17 10:12:01;;;;;;;12.58;4.97;;;;;;;31.94;29.47;100105.40;126051;1099;104223;-78
2021/08/17 10:14:34;;;;;;;13.33;5.40;;;;;;;32.00;29.51;100105.03;125860;1099;104191;-78
2021/08/17 10:17:07;;;;;;;;;;;;;;;31.96;29.09;100103.45;125933;1097;104210;-79
2021/08/17 10:19:41;;;;;;;10.43;4.93;;;;;;;31.99;29.80;100111.41;125933;1099;104166;-79
2021/08/17 10:22:12;;;;;;;10.57;4.80;;;;;;;32.05;29.56;100105.62;126056;1099;104322;-78
2021/08/17 10:24:52;;;;;;;12.30;4.93;;;;;;;32.11;29.78;100098.99;126097;1099;104347;-78
2021/08/17 10:27:34;;;;;;;8.87;4.60;;;;;;;32.16;29.95;100097.72;125998;1099;104618;-77
2021/08/17 10:30:15;;;;;;;10.30;4.47;;;;;;;32.21;29.86;100101.05;125989;1099;104313;-79
2021/08/17 10:32:54;;;;;;;11.87;5.10;;;;;;;32.24;29.86;100095.44;126131;1099;104278;-77
2021/08/17 10:35:52;;;;;;;10.07;4.40;;;;;;;32.25;29.79;100105.31;126167;1099;104165;-78
2021/08/17 10:38:48;;;;;;;9.07;4.27;;;;;;;32.29;29.79;100096.98;126110;1099;104241;-78
2021/08/17 10:41:33;;;;;;;13.30;4.37;;;;;;;32.30;29.96;100104.16;125965;1099;111864;-78
2021/08/17 10:44:16;;;;;;;10.83;4.20;;;;;;;32.28;29.72;100095.25;126205;1099;104274;-78
2021/08/17 10:47:02;;;;;;;11.00;4.20;;;;;;;32.30;29.96;100093.30;126264;1099;104278;-78
2021/08/17 10:49:49;;;;;;;11.90;4.57;;;;;;;32.33;30.00;100095.83;126119;1099;104139;-79
2021/08/17 10:52:32;;;;;;;9.13;4.70;;;;;;;32.39;29.98;100090.89;126266;1099;104602;-79
2021/08/17 10:55:28;;;;;;;8.87;4.20;;;;;;;32.38;29.67;100093.70;126181;1099;104245;-77
2021/08/17 10:58:02;;;;;;;9.80;4.30;;;;;;;32.38;29.67;100083.73;126107;1099;104171;-78
2021/08/17 11:00:51;;;;;;;11.17;4.13;;;;;;;32.36;29.26;100085.65;126155;1099;104236;-78
2021/08/17 11:03:41;;;;;;;11.63;4.50;;;;;;;32.38;29.38;100077.41;126197;1096;104144;-78
2021/08/17 11:06:34;;;;;;;8.20;4.10;;;;;;;32.38;28.73;100082.84;126053;1098;104133;-78
2021/08/17 11:09:07;;;;;;;12.98;4.50;;;;;;;32.42;29.01;100076.27;126187;1096;104143;-78
2021/08/17 11:11:41;;;;;;;9.93;4.20;;;;;;;32.46;29.05;100077.83;126205;1096;104217;-77
2021/08/17 11:14:20;;;;;;;8.17;4.40;;;;;;;32.42;28.65;100074.41;126206;1099;104169;-78
2021/08/17 11:16:57;;;;;;;11.30;4.77;;;;;;;32.51;28.95;100078.41;126135;1099;104159;-79
2021/08/17 11:19:36;;;;;;;10.30;4.60;;;;;;;32.55;28.81;100071.82;126228;1099;104140;-79
2021/08/17 11:22:08;;;;;;;13.67;4.43;;;;;;;32.54;28.38;100071.92;126289;1096;104213;-79
2021/08/17 11:24:44;;;;;;;8.23;4.30;;;;;;;32.53;27.93;100068.30;126183;1099;104214;-79
2021/08/17 11:27:22;;;;;;;9.90;4.47;;;;;;;32.49;27.81;100069.49;126175;1099;104163;-79
2021/08/17 11:29:56;;;;;;;13.10;4.77;;;;;;;32.51;28.09;100070.26;126248;1096;104390;-79